Time;durP1;ratioP1;P1;durP2;ratioP2;P2;SDS_P1;SDS_P2;PMS_P1;PMS_P2;Temp;Humidity;BMP_temperature;BMP_pressure;BME280_temperature;BME280_humidity;BME280_pressure;Samples;Min_cycle;Max_cycle;Signal;HPM_P1;HPM_P2
2021/08/07 00:02:04;;;;;;;2.55;0.90;;;18.60;93.80;;;;;;5030247;28;20099;-75
2021/08/07 00:04:29;;;;;;;3.55;1.75;;;18.50;93.90;;;;;;5044810;28;20048;-75
2021/08/07 00:06:55;;;;;;;3.20;1.60;;;18.50;93.90;;;;;;5046168;28;20589;-74
2021/08/07 00:09:21;;;;;;;3.05;1.45;;;18.60;94.00;;;;;;5038221;28;20029;-75
2021/08/07 00:11:47;;;;;;;3.28;1.35;;;18.60;94.10;;;;;;5043592;28;20045;-74
2021/08/07 00:14:12;;;;;;;7.28;2.03;;;18.50;94.10;;;;;;5045176;28;20408;-75
2021/08/07 00:16:38;;;;;;;3.45;1.63;;;18.60;94.10;;;;;;5043764;28;20060;-75
2021/08/07 00:19:04;;;;;;;4.00;1.75;;;18.60;94.10;;;;;;5043868;28;20024;-75
2021/08/07 00:21:30;;;;;;;2.40;1.70;;;18.60;94.10;;;;;;5042871;28;20053;-75
2021/08/07 00:23:56;;;;;;;2.20;1.42;;;18.60;94.20;;;;;;5045320;28;20044;-74
2021/08/07 00:26:21;;;;;;;4.45;1.85;;;18.50;94.20;;;;;;5045332;28;20037;-75
2021/08/07 00:28:47;;;;;;;2.97;1.60;;;18.50;94.10;;;;;;5045041;28;20032;-74
2021/08/07 00:31:13;;;;;;;3.00;1.50;;;18.50;94.00;;;;;;5041349;28;20098;-75
2021/08/07 00:33:38;;;;;;;6.22;2.00;;;18.50;94.10;;;;;;5045379;28;20685;-75
2021/08/07 00:36:04;;;;;;;3.55;1.73;;;18.50;94.10;;;;;;5046067;28;20017;-75
2021/08/07 00:38:30;;;;;;;2.50;1.52;;;18.50;94.10;;;;;;5044292;28;20522;-75
2021/08/07 00:40:56;;;;;;;3.08;1.67;;;18.50;94.20;;;;;;5044156;28;20124;-75
2021/08/07 00:43:22;;;;;;;4.43;1.60;;;18.50;94.20;;;;;;5044148;28;20081;-74
2021/08/07 00:45:48;;;;;;;3.70;1.60;;;18.40;94.20;;;;;;5045003;28;20029;-76
2021/08/07 00:48:14;;;;;;;5.03;1.70;;;18.40;94.30;;;;;;5044461;28;20051;-75
2021/08/07 00:50:40;;;;;;;2.42;1.17;;;18.40;94.30;;;;;;5044951;28;20048;-74
2021/08/07 00:53:06;;;;;;;4.03;1.73;;;18.30;94.20;;;;;;5043324;28;20100;-74
2021/08/07 00:55:32;;;;;;;5.13;1.92;;;18.30;94.30;;;;;;5044912;28;20029;-74
2021/08/07 00:57:58;;;;;;;3.97;1.98;;;18.30;94.40;;;;;;5043916;28;20078;-74
2021/08/07 01:00:24;;;;;;;2.40;1.30;;;18.30;94.50;;;;;;5034338;28;20111;-75
2021/08/07 01:03:23;;;;;;;2.40;1.60;;;18.30;94.60;;;;;;5040840;28;20067;-75
2021/08/07 01:05:57;;;;;;;4.38;1.90;;;18.30;94.60;;;;;;5043928;28;20508;-75
2021/08/07 01:08:24;;;;;;;4.50;1.92;;;18.30;94.50;;;;;;5044268;28;20040;-75
2021/08/07 01:11:12;;;;;;;2.03;1.42;;;18.30;94.50;;;;;;5044475;28;20029;-75
2021/08/07 01:13:45;;;;;;;3.60;2.00;;;18.30;94.50;;;;;;5042801;28;20028;-75
2021/08/07 01:16:16;;;;;;;3.45;1.80;;;18.30;94.50;;;;;;5044463;28;20380;-75
2021/08/07 01:18:45;;;;;;;4.47;2.25;;;18.30;94.50;;;;;;5042993;28;20360;-75
2021/08/07 01:21:17;;;;;;;6.68;2.10;;;18.30;94.50;;;;;;5042693;28;20095;-75
2021/08/07 01:24:04;;;;;;;5.00;1.83;;;18.30;94.60;;;;;;5044417;28;20091;-75
2021/08/07 01:26:59;;;;;;;4.25;2.33;;;18.30;94.70;;;;;;5044471;28;20037;-75
2021/08/07 01:29:26;;;;;;;4.82;2.22;;;18.20;94.70;;;;;;5043036;28;20132;-75
2021/08/07 01:31:54;;;;;;;4.00;2.15;;;18.20;94.70;;;;;;5043065;28;20985;-75
2021/08/07 01:34:20;;;;;;;6.60;2.10;;;18.20;94.80;;;;;;5043654;28;20151;-74
2021/08/07 01:36:47;;;;;;;5.28;2.65;;;18.20;94.80;;;;;;5044617;28;20025;-74
2021/08/07 01:39:12;;;;;;;5.45;2.30;;;18.20;94.90;;;;;;5044270;28;20021;-77
2021/08/07 01:41:38;;;;;;;6.13;2.60;;;18.20;94.90;;;;;;5042381;28;20021;-78
2021/08/07 01:44:05;;;;;;;3.92;2.00;;;18.20;94.90;;;;;;5044685;28;20110;-74
2021/08/07 01:46:58;;;;;;;5.78;1.98;;;18.30;95.00;;;;;;5044090;28;20037;-74
2021/08/07 01:49:33;;;;;;;5.72;2.60;;;18.30;95.10;;;;;;5044011;28;20112;-74
2021/08/07 01:52:05;;;;;;;3.65;1.98;;;18.30;94.90;;;;;;5043118;28;20491;-74
2021/08/07 01:54:36;;;;;;;2.97;1.92;;;18.20;94.90;;;;;;5059182;28;20021;-77
2021/08/07 01:57:08;;;;;;;5.13;2.67;;;18.30;94.90;;;;;;5044179;28;20507;-74
2021/08/07 01:59:35;;;;;;;3.50;1.73;;;18.30;94.90;;;;;;5043823;28;20441;-77
2021/08/07 02:02:03;;;;;;;2.85;1.70;;;18.20;95.00;;;;;;5030979;28;20045;-74
2021/08/07 02:04:29;;;;;;;3.58;1.80;;;18.20;95.00;;;;;;5043140;28;20028;-74
2021/08/07 02:06:56;;;;;;;5.15;2.45;;;18.20;95.10;;;;;;5044590;28;20105;-74
2021/08/07 02:09:23;;;;;;;2.83;2.00;;;18.10;95.10;;;;;;5043913;28;20464;-74
2021/08/07 02:11:49;;;;;;;3.65;1.92;;;18.10;95.10;;;;;;5042370;28;20032;-74
2021/08/07 02:14:17;;;;;;;4.82;2.58;;;18.10;95.10;;;;;;5043718;28;20027;-74
2021/08/07 02:16:44;;;;;;;4.55;2.17;;;18.00;95.20;;;;;;5042139;28;20025;-77
2021/08/07 02:19:12;;;;;;;2.78;1.73;;;18.00;95.20;;;;;;5042953;28;20028;-77
2021/08/07 02:21:38;;;;;;;3.65;1.98;;;17.90;95.20;;;;;;5040579;28;20060;-74
2021/08/07 02:24:04;;;;;;;10.23;2.75;;;17.90;95.20;;;;;;5043736;28;20021;-74
2021/08/07 02:26:30;;;;;;;4.82;2.30;;;17.90;95.20;;;;;;5043510;28;20036;-75
2021/08/07 02:28:56;;;;;;;6.13;2.10;;;17.80;95.20;;;;;;5044161;28;20400;-74
2021/08/07 02:31:22;;;;;;;4.07;2.22;;;17.80;95.20;;;;;;5044209;28;20029;-75
2021/08/07 02:33:50;;;;;;;4.07;2.58;;;17.80;95.30;;;;;;5047623;28;20039;-74
2021/08/07 02:36:16;;;;;;;3.53;2.00;;;17.70;95.30;;;;;;5045148;28;20049;-74
2021/08/07 02:38:44;;;;;;;3.70;1.88;;;17.70;95.40;;;;;;5047049;28;20032;-75
2021/08/07 02:41:12;;;;;;;5.40;2.13;;;17.70;95.40;;;;;;5046885;28;20037;-75
2021/08/07 02:43:39;;;;;;;2.95;1.70;;;17.70;95.40;;;;;;5046667;28;20021;-74
2021/08/07 02:46:06;;;;;;;4.93;2.10;;;17.70;95.40;;;;;;5047465;28;20024;-75
2021/08/07 02:48:33;;;;;;;4.95;2.00;;;17.60;95.40;;;;;;5047235;28;20028;-75
2021/08/07 02:50:59;;;;;;;3.08;1.95;;;17.60;95.50;;;;;;5046497;28;20507;-75
2021/08/07 02:53:26;;;;;;;4.95;2.40;;;17.60;95.50;;;;;;5045053;28;20033;-75
2021/08/07 02:55:52;;;;;;;3.85;2.20;;;17.60;95.50;;;;;;5046875;28;20039;-75
2021/08/07 02:58:18;;;;;;;5.32;2.17;;;17.50;95.40;;;;;;5047087;28;20045;-74
2021/08/07 03:00:44;;;;;;;5.63;2.40;;;17.50;95.40;;;;;;5036631;28;20115;-75
2021/08/07 03:03:09;;;;;;;4.50;2.72;;;17.50;95.40;;;;;;5045138;28;20363;-75
2021/08/07 03:05:35;;;;;;;3.88;2.08;;;17.50;95.40;;;;;;5046302;28;20404;-75
2021/08/07 03:08:01;;;;;;;5.57;2.38;;;17.50;95.50;;;;;;5047354;28;20110;-74
2021/08/07 03:10:27;;;;;;;2.83;1.60;;;17.40;95.50;;;;;;5046870;28;20419;-75
2021/08/07 03:12:53;;;;;;;5.93;2.13;;;17.50;95.50;;;;;;5044882;28;20095;-74
2021/08/07 03:15:21;;;;;;;5.10;2.28;;;17.50;95.40;;;;;;5046880;28;20491;-75
2021/08/07 03:17:47;;;;;;;4.35;2.40;;;17.40;95.40;;;;;;5045678;28;20338;-75
2021/08/07 03:20:13;;;;;;;2.75;1.83;;;17.40;95.30;;;;;;5046697;28;20078;-75
2021/08/07 03:22:39;;;;;;;5.32;2.88;;;17.40;95.40;;;;;;5043309;28;20029;-75
2021/08/07 03:25:05;;;;;;;3.20;1.90;;;17.40;95.40;;;;;;5044235;28;20352;-75
2021/08/07 03:27:31;;;;;;;4.28;1.83;;;17.30;95.40;;;;;;5045357;28;20029;-75
2021/08/07 03:29:56;;;;;;;6.10;2.15;;;17.30;95.50;;;;;;5046819;28;20415;-75
2021/08/07 03:32:22;;;;;;;2.80;1.65;;;17.30;95.50;;;;;;5044875;28;20457;-74
2021/08/07 03:34:47;;;;;;;3.22;2.00;;;17.30;95.50;;;;;;5045674;28;20063;-75
2021/08/07 03:37:13;;;;;;;7.30;2.38;;;17.30;95.50;;;;;;5045213;28;20024;-75
2021/08/07 03:39:39;;;;;;;3.72;2.38;;;17.30;95.60;;;;;;5045969;28;20055;-75
2021/08/07 03:42:05;;;;;;;5.15;2.38;;;17.30;95.60;;;;;;5044474;28;20049;-75
2021/08/07 03:44:31;;;;;;;5.05;2.00;;;17.30;95.60;;;;;;5045760;28;20021;-75
2021/08/07 03:46:56;;;;;;;3.03;1.98;;;17.30;95.60;;;;;;5046274;28;20052;-75
2021/08/07 03:49:22;;;;;;;6.57;2.10;;;17.30;95.70;;;;;;5046344;28;20036;-74
2021/08/07 03:51:48;;;;;;;3.05;1.60;;;17.30;95.70;;;;;;5042860;28;20400;-74
2021/08/07 03:54:14;;;;;;;4.80;1.92;;;17.30;95.70;;;;;;5045497;28;20024;-74
2021/08/07 03:56:40;;;;;;;2.72;1.35;;;17.30;95.60;;;;;;5045948;28;20064;-75
2021/08/07 03:59:06;;;;;;;2.95;1.70;;;17.40;95.60;;;;;;5047654;28;20048;-74
2021/08/07 04:01:31;;;;;;;2.65;1.50;;;17.40;95.60;;;;;;5033174;28;20052;-75
2021/08/07 04:03:57;;;;;;;4.80;1.60;;;17.40;95.50;;;;;;5044370;28;20037;-75
2021/08/07 04:06:23;;;;;;;1.90;1.27;;;17.40;95.40;;;;;;5045344;28;20477;-74
2021/08/07 04:08:48;;;;;;;2.60;1.50;;;17.40;95.40;;;;;;5045176;28;20130;-75
2021/08/07 04:11:14;;;;;;;7.03;2.15;;;17.50;95.30;;;;;;5041573;28;20423;-75
2021/08/07 04:13:39;;;;;;;3.75;1.45;;;17.50;95.30;;;;;;5045322;28;20070;-75
2021/08/07 04:16:05;;;;;;;4.07;2.00;;;17.50;95.20;;;;;;5045636;28;20021;-75
2021/08/07 04:18:31;;;;;;;2.30;1.55;;;17.50;95.20;;;;;;5045336;28;20029;-75
2021/08/07 04:20:57;;;;;;;4.50;1.70;;;17.60;95.20;;;;;;5045068;28;20064;-75
2021/08/07 04:23:23;;;;;;;4.40;2.05;;;17.60;95.20;;;;;;5043447;28;20086;-75
2021/08/07 04:25:48;;;;;;;4.93;1.88;;;17.60;95.20;;;;;;5042184;28;20308;-75
2021/08/07 04:28:14;;;;;;;2.75;1.73;;;17.60;95.20;;;;;;5044402;28;20411;-75
2021/08/07 04:30:40;;;;;;;2.80;1.48;;;17.60;95.20;;;;;;5043642;28;20400;-75
2021/08/07 04:33:05;;;;;;;3.28;1.70;;;17.60;95.10;;;;;;5042586;28;20041;-74
2021/08/07 04:35:31;;;;;;;3.30;1.75;;;17.70;95.10;;;;;;5044775;28;20035;-75
2021/08/07 04:37:58;;;;;;;5.22;2.03;;;17.60;95.00;;;;;;5045125;28;20473;-75
2021/08/07 04:40:26;;;;;;;3.10;1.90;;;17.60;95.00;;;;;;5045502;28;20029;-74
2021/08/07 04:42:52;;;;;;;4.85;1.80;;;17.60;95.00;;;;;;5041384;28;20219;-74
2021/08/07 04:45:18;;;;;;;4.82;1.98;;;17.60;95.00;;;;;;5044952;28;20063;-74
2021/08/07 04:47:57;;;;;;;2.38;1.48;;;17.60;95.00;;;;;;5043780;28;20021;-75
2021/08/07 04:50:25;;;;;;;3.75;1.73;;;17.70;95.10;;;;;;5043713;28;20044;-74
2021/08/07 04:52:51;;;;;;;2.92;1.70;;;17.70;95.00;;;;;;5039349;28;20385;-74
2021/08/07 04:55:17;;;;;;;4.03;1.70;;;17.70;95.10;;;;;;5042387;28;20383;-75
2021/08/07 04:57:43;;;;;;;4.13;1.35;;;17.70;95.00;;;;;;5044031;28;20025;-75
2021/08/07 05:00:09;;;;;;;3.30;1.75;;;17.70;95.00;;;;;;5045515;28;20495;-74
2021/08/07 05:02:35;;;;;;;2.00;1.20;;;17.70;95.10;;;;;;5031413;28;20068;-75
2021/08/07 05:05:01;;;;;;;2.25;1.48;;;17.70;95.00;;;;;;5045012;28;20067;-75
2021/08/07 05:07:30;;;;;;;3.25;1.77;;;17.70;94.90;;;;;;5044033;28;20109;-75
2021/08/07 05:09:55;;;;;;;7.20;2.05;;;17.70;94.90;;;;;;5043155;28;20110;-74
2021/08/07 05:12:23;;;;;;;2.72;1.65;;;17.70;94.90;;;;;;5041237;28;20071;-75
2021/08/07 05:14:48;;;;;;;3.45;1.58;;;17.80;94.90;;;;;;5044100;28;20055;-74
2021/08/07 05:17:14;;;;;;;6.03;2.40;;;17.80;95.10;;;;;;5044203;28;20037;-74
2021/08/07 05:19:40;;;;;;;3.45;1.80;;;17.90;94.70;;;;;;5042980;28;20017;-75
2021/08/07 05:22:05;;;;;;;4.80;1.85;;;17.80;94.70;;;;;;5041543;28;20654;-75
2021/08/07 05:24:31;;;;;;;3.92;1.80;;;17.90;94.60;;;;;;5044500;28;20136;-75
2021/08/07 05:26:57;;;;;;;3.33;1.67;;;17.90;94.60;;;;;;5043545;28;20098;-75
2021/08/07 05:29:22;;;;;;;3.67;2.03;;;17.90;94.50;;;;;;5044604;28;20059;-75
2021/08/07 05:31:48;;;;;;;3.38;1.85;;;17.90;94.40;;;;;;5040714;28;20024;-75
2021/08/07 05:34:13;;;;;;;4.43;1.70;;;18.00;94.50;;;;;;5044152;28;20078;-75
2021/08/07 05:36:39;;;;;;;4.28;1.70;;;18.00;94.40;;;;;;5044209;28;20033;-75
2021/08/07 05:39:05;;;;;;;2.30;1.60;;;17.90;94.30;;;;;;5044610;28;20021;-75
2021/08/07 05:41:30;;;;;;;2.65;1.95;;;17.90;94.20;;;;;;5040805;28;20458;-75
2021/08/07 05:43:56;;;;;;;2.20;1.60;;;17.90;94.20;;;;;;5042423;28;20029;-75
2021/08/07 05:46:22;;;;;;;3.38;1.85;;;17.90;94.20;;;;;;5043879;28;20558;-75
2021/08/07 05:48:49;;;;;;;2.47;1.40;;;17.90;94.20;;;;;;5043621;28;20021;-75
2021/08/07 05:51:14;;;;;;;2.95;1.77;;;18.00;94.20;;;;;;5040796;28;20036;-76
2021/08/07 05:53:40;;;;;;;2.53;1.50;;;18.00;94.20;;;;;;5042709;28;20017;-76
2021/08/07 05:56:05;;;;;;;4.25;1.33;;;18.10;94.10;;;;;;5044437;28;20040;-75
2021/08/07 05:58:37;;;;;;;4.18;1.40;;;18.10;94.10;;;;;;5044580;28;20146;-75
2021/08/07 06:01:03;;;;;;;2.92;1.38;;;18.10;94.10;;;;;;5032949;28;20040;-75
2021/08/07 06:03:29;;;;;;;5.22;2.13;;;18.10;94.00;;;;;;5041151;28;20423;-75
2021/08/07 06:05:55;;;;;;;5.65;1.85;;;18.10;93.90;;;;;;5045326;28;20355;-76
2021/08/07 06:08:20;;;;;;;5.65;2.25;;;18.00;93.80;;;;;;5047957;28;20119;-75
2021/08/07 06:10:46;;;;;;;2.85;1.55;;;18.00;93.80;;;;;;5047368;28;20021;-76
2021/08/07 06:13:11;;;;;;;3.55;1.60;;;18.00;93.90;;;;;;5039572;28;20273;-75
2021/08/07 06:15:37;;;;;;;3.38;1.50;;;18.00;94.00;;;;;;5047924;28;20017;-76
2021/08/07 06:18:03;;;;;;;3.70;1.70;;;18.10;93.90;;;;;;5048344;28;20431;-75
2021/08/07 06:20:29;;;;;;;2.00;1.27;;;18.20;93.80;;;;;;5046918;28;20060;-75
2021/08/07 06:22:55;;;;;;;4.20;1.65;;;18.30;93.60;;;;;;5041893;28;21100;-75
2021/08/07 06:25:21;;;;;;;3.22;1.45;;;18.30;93.40;;;;;;5047844;28;20033;-76
2021/08/07 06:27:53;;;;;;;4.00;1.77;;;18.40;93.40;;;;;;5046695;28;20044;-76
2021/08/07 06:30:20;;;;;;;2.58;1.33;;;18.40;93.40;;;;;;5047261;28;20021;-76
2021/08/07 06:32:46;;;;;;;6.93;2.45;;;18.40;93.40;;;;;;5041322;28;20067;-76
2021/08/07 06:35:11;;;;;;;2.53;1.05;;;18.40;93.30;;;;;;5048055;28;20017;-76
2021/08/07 06:37:37;;;;;;;3.30;1.50;;;18.50;93.30;;;;;;5046472;28;20047;-75
2021/08/07 06:40:05;;;;;;;3.55;1.40;;;18.50;93.20;;;;;;5048137;28;20460;-76
2021/08/07 06:42:30;;;;;;;4.88;1.40;;;18.60;93.10;;;;;;5042674;28;20103;-75
2021/08/07 06:44:56;;;;;;;2.42;1.63;;;18.60;93.10;;;;;;5046705;28;20112;-76
2021/08/07 06:47:22;;;;;;;1.95;1.00;;;18.60;93.10;;;;;;5047287;28;20044;-75
2021/08/07 06:49:47;;;;;;;3.05;1.77;;;18.60;93.00;;;;;;5045191;28;20033;-76
2021/08/07 06:52:13;;;;;;;2.17;1.42;;;18.60;92.90;;;;;;5042586;28;20021;-75
2021/08/07 06:54:39;;;;;;;3.83;1.10;;;18.60;92.90;;;;;;5047767;28;20063;-76
2021/08/07 06:57:04;;;;;;;2.88;0.90;;;18.60;92.90;;;;;;5047489;28;20057;-76
2021/08/07 06:59:30;;;;;;;4.75;2.22;;;18.60;92.90;;;;;;5046150;28;20075;-75
2021/08/07 07:01:56;;;;;;;3.25;1.63;;;18.60;92.80;;;;;;5030255;28;20068;-76
2021/08/07 07:04:22;;;;;;;4.60;1.10;;;18.70;92.60;;;;;;5046374;28;20129;-75
2021/08/07 07:06:48;;;;;;;1.98;1.00;;;18.80;92.50;;;;;;5045519;28;20020;-76
2021/08/07 07:09:14;;;;;;;4.00;1.30;;;18.90;92.20;;;;;;5046567;28;20020;-75
2021/08/07 07:11:40;;;;;;;2.95;0.85;;;19.00;92.10;;;;;;5044659;28;20037;-76
2021/08/07 07:14:06;;;;;;;1.75;0.90;;;19.10;92.00;;;;;;5046497;28;20024;-76
2021/08/07 07:16:32;;;;;;;1.73;0.90;;;19.10;91.60;;;;;;5043550;28;20037;-76
2021/08/07 07:18:58;;;;;;;3.03;1.20;;;19.20;90.90;;;;;;5043473;28;20143;-76
2021/08/07 07:21:24;;;;;;;3.88;1.00;;;19.20;90.80;;;;;;5044286;28;20087;-75
2021/08/07 07:23:50;;;;;;;4.22;1.63;;;19.20;90.30;;;;;;5045491;28;20057;-75
2021/08/07 07:26:16;;;;;;;1.52;0.90;;;19.10;90.30;;;;;;5042549;28;20112;-74
2021/08/07 07:28:41;;;;;;;1.27;0.90;;;19.10;90.20;;;;;;5044816;28;20017;-75
2021/08/07 07:31:07;;;;;;;1.75;0.80;;;19.10;90.20;;;;;;5045198;28;20025;-74
2021/08/07 07:33:33;;;;;;;2.55;0.80;;;19.10;89.90;;;;;;5046888;28;20075;-75
2021/08/07 07:35:59;;;;;;;1.27;0.68;;;19.20;89.90;;;;;;5045184;28;20378;-75
2021/08/07 07:38:25;;;;;;;3.17;1.10;;;19.30;89.60;;;;;;5045597;28;20053;-75
2021/08/07 07:40:52;;;;;;;1.45;0.63;;;19.40;89.10;;;;;;5044255;28;20119;-75
2021/08/07 07:43:19;;;;;;;3.08;0.75;;;19.50;89.10;;;;;;5045132;28;20025;-75
2021/08/07 07:45:45;;;;;;;1.45;0.70;;;19.50;88.70;;;;;;5045660;28;20060;-74
2021/08/07 07:48:11;;;;;;;1.00;0.50;;;19.50;88.80;;;;;;5046066;28;20056;-75
2021/08/07 07:50:36;;;;;;;1.73;0.95;;;19.60;88.80;;;;;;5044614;28;20021;-75
2021/08/07 07:53:03;;;;;;;2.30;0.90;;;19.60;88.60;;;;;;5044442;28;20040;-75
2021/08/07 07:55:29;;;;;;;0.65;0.40;;;19.60;88.50;;;;;;5046504;28;20029;-75
2021/08/07 07:57:59;;;;;;;1.35;0.75;;;19.60;88.30;;;;;;5045278;28;20635;-75
2021/08/07 08:00:25;;;;;;;0.57;0.50;;;19.70;88.00;;;;;;5043304;28;20033;-75
2021/08/07 08:02:51;;;;;;;2.85;1.02;;;19.70;87.60;;;;;;5032320;28;20477;-75
2021/08/07 08:05:18;;;;;;;1.20;0.70;;;19.70;86.80;;;;;;5045545;28;20504;-75
2021/08/07 08:07:44;;;;;;;2.13;0.73;;;19.70;86.20;;;;;;5043883;28;20100;-75
2021/08/07 08:10:11;;;;;;;1.83;0.65;;;19.80;86.00;;;;;;5046121;28;20103;-74
2021/08/07 08:12:38;;;;;;;2.38;0.73;;;19.80;85.70;;;;;;5044099;28;20013;-74
2021/08/07 08:15:05;;;;;;;1.67;1.17;;;19.90;85.70;;;;;;5045122;28;20446;-75
2021/08/07 08:17:31;;;;;;;2.38;0.88;;;20.00;85.30;;;;;;5045099;28;20417;-75
2021/08/07 08:19:57;;;;;;;2.13;0.82;;;20.10;84.50;;;;;;5042473;28;20090;-75
2021/08/07 08:22:23;;;;;;;0.82;0.65;;;20.20;84.40;;;;;;5043154;28;20064;-75
2021/08/07 08:24:48;;;;;;;2.63;0.98;;;20.20;84.30;;;;;;5044546;28;20071;-76
2021/08/07 08:27:18;;;;;;;2.20;0.95;;;20.30;84.60;;;;;;5046724;28;20032;-75
2021/08/07 08:29:45;;;;;;;2.65;0.82;;;20.30;84.70;;;;;;5048270;28;20021;-76
2021/08/07 08:32:12;;;;;;;4.35;0.77;;;20.40;84.90;;;;;;5044237;28;20044;-75
2021/08/07 08:34:38;;;;;;;1.92;1.00;;;20.40;85.00;;;;;;5047749;28;20440;-75
2021/08/07 08:37:04;;;;;;;2.58;1.08;;;20.30;85.10;;;;;;5046363;28;20036;-75
2021/08/07 08:39:30;;;;;;;1.73;0.90;;;20.30;85.30;;;;;;5046758;28;20071;-74
2021/08/07 08:41:56;;;;;;;2.25;0.95;;;20.40;85.50;;;;;;5044477;28;20029;-74
2021/08/07 08:44:22;;;;;;;3.35;1.10;;;20.40;85.60;;;;;;5046429;28;20536;-74
2021/08/07 08:46:48;;;;;;;1.63;0.80;;;20.50;85.80;;;;;;5046088;28;20311;-75
2021/08/07 08:49:18;;;;;;;3.72;1.30;;;20.50;85.80;;;;;;5045585;28;20037;-75
2021/08/07 08:51:45;;;;;;;1.70;0.90;;;20.60;85.50;;;;;;5042483;28;20059;-75
2021/08/07 08:54:11;;;;;;;1.42;0.85;;;20.70;85.20;;;;;;5047770;28;20067;-75
2021/08/07 08:56:38;;;;;;;0.95;0.73;;;20.70;85.30;;;;;;5045598;28;20041;-76
2021/08/07 08:59:04;;;;;;;2.00;0.95;;;20.70;85.30;;;;;;5047680;28;20036;-75
2021/08/07 09:01:30;;;;;;;2.85;1.42;;;20.60;85.30;;;;;;5039254;28;20028;-75
2021/08/07 09:03:56;;;;;;;2.15;1.00;;;20.60;84.90;;;;;;5034019;28;20045;-74
2021/08/07 09:06:22;;;;;;;3.83;1.20;;;20.60;84.80;;;;;;5044599;28;20025;-75
2021/08/07 09:09:10;;;;;;;5.25;1.63;;;20.60;84.90;;;;;;5043968;28;20025;-76
2021/08/07 09:11:51;;;;;;;1.90;1.30;;;20.50;84.80;;;;;;5043143;28;20052;-76
2021/08/07 09:14:26;;;;;;;2.58;1.20;;;20.60;85.10;;;;;;5044670;28;20017;-76
2021/08/07 09:17:00;;;;;;;1.58;1.30;;;20.60;84.70;;;;;;5044084;28;20116;-77
2021/08/07 09:19:53;;;;;;;2.60;1.27;;;20.70;84.70;;;;;;5043081;28;20036;-74
2021/08/07 09:22:26;;;;;;;2.08;1.25;;;20.70;84.80;;;;;;5040287;28;20139;-75
2021/08/07 09:25:16;;;;;;;2.80;1.30;;;20.70;84.70;;;;;;5034534;28;20029;-75
2021/08/07 09:27:51;;;;;;;3.22;1.20;;;20.70;84.80;;;;;;5043649;28;20116;-75
2021/08/07 09:30:19;;;;;;;1.55;1.23;;;20.80;84.60;;;;;;5044992;28;20546;-76
2021/08/07 09:32:50;;;;;;;2.05;1.20;;;20.70;84.60;;;;;;5037867;28;20029;-75
2021/08/07 09:35:26;;;;;;;1.90;1.02;;;20.70;84.80;;;;;;5038809;28;20032;-75
2021/08/07 09:38:14;;;;;;;2.78;1.20;;;20.80;85.40;;;;;;5042241;28;20021;-74
2021/08/07 09:40:54;;;;;;;1.00;0.90;;;20.80;84.80;;;;;;5043628;28;20025;-74
2021/08/07 09:43:44;;;;;;;2.20;1.13;;;20.80;84.90;;;;;;5043354;28;20021;-74
2021/08/07 09:46:30;;;;;;;1.37;0.97;;;20.80;85.10;;;;;;5042654;28;20033;-74
2021/08/07 09:48:56;;;;;;;2.28;1.00;;;20.70;85.10;;;;;;5044739;28;20037;-74
2021/08/07 09:51:26;;;;;;;1.65;0.98;;;20.70;85.20;;;;;;5041171;28;20032;-73
2021/08/07 09:54:06;;;;;;;4.45;1.45;;;20.70;85.10;;;;;;5041919;28;20047;-74
2021/08/07 09:57:01;;;;;;;3.10;1.20;;;20.80;84.90;;;;;;5040785;28;20033;-74
2021/08/07 09:59:33;;;;;;;1.30;0.82;;;20.80;84.80;;;;;;5030523;28;20055;-74
2021/08/07 10:01:59;;;;;;;1.10;1.00;;;20.80;84.80;;;;;;5040293;28;20082;-75
2021/08/07 10:04:36;;;;;;;4.70;1.40;;;20.80;85.10;;;;;;5038732;28;20087;-74
2021/08/07 10:07:08;;;;;;;1.95;1.13;;;20.80;85.20;;;;;;5042110;28;20048;-74
2021/08/07 10:09:34;;;;;;;1.55;1.10;;;20.80;85.30;;;;;;5042711;28;20123;-74
2021/08/07 10:12:06;;;;;;;3.08;0.93;;;20.90;85.30;;;;;;5039902;28;20062;-74
2021/08/07 10:14:32;;;;;;;3.13;1.23;;;20.90;85.00;;;;;;5041220;28;20013;-74
2021/08/07 10:17:01;;;;;;;2.80;1.05;;;20.90;84.00;;;;;;5040517;28;20047;-74
2021/08/07 10:19:27;;;;;;;3.05;1.08;;;20.80;84.30;;;;;;5042651;28;20032;-74
2021/08/07 10:21:54;;;;;;;0.80;0.80;;;20.80;84.50;;;;;;5039387;28;20481;-78
2021/08/07 10:24:20;;;;;;;2.17;1.20;;;20.90;84.40;;;;;;5042835;28;20017;-75
2021/08/07 10:26:49;;;;;;;2.13;1.60;;;21.00;83.10;;;;;;5042133;28;20033;-76
2021/08/07 10:29:18;;;;;;;2.47;1.10;;;21.00;83.00;;;;;;5041965;28;20464;-76
2021/08/07 10:31:44;;;;;;;2.30;1.20;;;21.30;82.70;;;;;;5030322;28;20112;-76
2021/08/07 10:34:10;;;;;;;2.72;1.10;;;21.50;82.10;;;;;;5040977;28;20029;-75
2021/08/07 10:36:38;;;;;;;2.75;1.20;;;21.60;81.40;;;;;;5041231;28;20037;-75
2021/08/07 10:39:06;;;;;;;2.85;1.20;;;21.80;80.80;;;;;;5042061;28;20037;-75
2021/08/07 10:41:34;;;;;;;4.68;1.13;;;21.90;80.30;;;;;;5043146;28;20579;-74
2021/08/07 10:44:02;;;;;;;0.73;0.60;;;21.90;80.40;;;;;;5040809;28;20044;-74
2021/08/07 10:46:29;;;;;;;4.65;1.23;;;21.90;80.30;;;;;;5043024;28;20049;-74
2021/08/07 10:48:55;;;;;;;4.22;1.13;;;21.80;79.60;;;;;;5042178;28;20055;-74
2021/08/07 10:51:23;;;;;;;3.88;1.30;;;21.60;79.50;;;;;;5039699;28;20036;-74
2021/08/07 10:53:57;;;;;;;1.50;0.80;;;21.40;79.20;;;;;;5043117;28;20076;-74
2021/08/07 10:56:29;;;;;;;3.25;0.90;;;21.30;79.80;;;;;;5050144;28;20747;-74
2021/08/07 10:59:15;;;;;;;3.05;0.95;;;21.20;79.90;;;;;;5051378;28;20049;-74
2021/08/07 11:02:05;;;;;;;2.50;1.27;;;21.20;78.90;;;;;;5053695;28;20491;-74
2021/08/07 11:04:50;;;;;;;2.40;1.00;;;21.30;78.90;;;;;;5053749;28;20418;-74
2021/08/07 11:07:19;;;;;;;1.42;0.90;;;21.50;79.00;;;;;;5053838;28;20029;-73
2021/08/07 11:10:08;;;;;;;3.83;1.10;;;21.70;77.70;;;;;;5054380;28;20453;-75
2021/08/07 11:12:37;;;;;;;1.92;1.10;;;21.80;76.90;;;;;;5053209;28;20021;-75
2021/08/07 11:15:05;;;;;;;1.45;0.80;;;21.90;75.90;;;;;;5054040;28;20047;-75
2021/08/07 11:17:34;;;;;;;1.30;0.77;;;21.90;75.80;;;;;;5054366;28;20029;-74
2021/08/07 11:20:07;;;;;;;2.83;1.00;;;21.80;75.80;;;;;;5053813;28;20163;-74
2021/08/07 11:22:36;;;;;;;1.75;1.10;;;21.70;76.30;;;;;;5055971;28;20064;-73
2021/08/07 11:25:21;;;;;;;2.58;1.00;;;21.70;76.90;;;;;;5056560;28;20017;-74
2021/08/07 11:27:48;;;;;;;1.48;1.02;;;21.60;76.00;;;;;;5054160;28;20079;-73
2021/08/07 11:30:24;;;;;;;4.00;0.80;;;21.60;75.90;;;;;;5053205;28;20027;-74
2021/08/07 11:32:56;;;;;;;3.58;1.45;;;21.50;75.90;;;;;;5052761;28;20174;-74
2021/08/07 11:35:33;;;;;;;1.27;0.70;;;21.50;74.70;;;;;;5052576;28;20078;-74
2021/08/07 11:38:25;;;;;;;2.58;1.00;;;21.50;74.10;;;;;;5053240;28;20024;-72
2021/08/07 11:40:58;;;;;;;2.10;0.90;;;21.50;72.70;;;;;;5053880;28;20051;-73
2021/08/07 11:43:26;;;;;;;2.33;0.80;;;21.60;71.90;;;;;;5053761;28;20036;-74
2021/08/07 11:45:55;;;;;;;2.60;0.77;;;21.60;72.20;;;;;;5053786;28;20029;-73
2021/08/07 11:48:32;;;;;;;0.75;0.63;;;21.70;72.50;;;;;;5053118;28;20029;-74
2021/08/07 11:51:01;;;;;;;2.97;1.05;;;21.80;73.10;;;;;;5051749;28;20036;-75
2021/08/07 11:53:27;;;;;;;1.77;0.68;;;21.90;72.00;;;;;;5053581;28;20024;-74
2021/08/07 11:56:14;;;;;;;2.10;0.88;;;22.00;72.30;;;;;;5053499;28;20444;-74
2021/08/07 11:58:45;;;;;;;1.95;1.00;;;22.20;72.30;;;;;;5053496;28;20035;-74
2021/08/07 12:01:11;;;;;;;2.13;0.82;;;22.50;72.30;;;;;;5053050;28;20029;-74
2021/08/07 12:03:52;;;;;;;2.95;1.20;;;22.70;71.90;;;;;;5052599;28;20496;-74
2021/08/07 12:06:20;;;;;;;3.20;0.88;;;22.80;70.10;;;;;;5052850;28;20032;-74
2021/08/07 12:08:47;;;;;;;3.08;0.98;;;22.80;70.10;;;;;;5053219;28;20059;-74
2021/08/07 12:11:16;;;;;;;2.08;0.80;;;22.80;70.60;;;;;;5052541;28;20027;-75
2021/08/07 12:13:56;;;;;;;0.95;0.68;;;23.00;70.80;;;;;;5053022;28;20135;-74
2021/08/07 12:16:34;;;;;;;0.68;0.63;;;23.10;70.90;;;;;;5052151;28;20354;-74
2021/08/07 12:19:16;;;;;;;2.10;0.50;;;23.20;69.40;;;;;;5052666;28;20025;-74
2021/08/07 12:21:42;;;;;;;2.58;0.90;;;23.30;67.10;;;;;;5051284;28;20063;-74
2021/08/07 12:24:10;;;;;;;1.17;0.50;;;23.40;66.50;;;;;;5052222;28;20528;-74
2021/08/07 12:26:45;;;;;;;1.05;0.60;;;23.40;66.10;;;;;;5051650;28;20025;-73
2021/08/07 12:29:13;;;;;;;1.85;0.70;;;23.30;64.70;;;;;;5052391;28;20032;-74
2021/08/07 12:31:45;;;;;;;2.42;0.65;;;23.30;64.60;;;;;;5052921;28;20057;-74
2021/08/07 12:34:16;;;;;;;2.45;0.80;;;23.30;65.00;;;;;;5052266;28;20017;-74
2021/08/07 12:36:42;;;;;;;1.58;0.77;;;23.40;64.90;;;;;;5051471;28;20021;-74
2021/08/07 12:39:08;;;;;;;1.35;0.73;;;23.40;64.70;;;;;;5052083;28;20065;-74
2021/08/07 12:41:34;;;;;;;1.42;0.50;;;23.40;64.20;;;;;;5052401;28;20524;-74
2021/08/07 12:44:00;;;;;;;1.45;0.50;;;23.40;62.30;;;;;;5052545;28;20021;-74
2021/08/07 12:46:26;;;;;;;1.42;0.52;;;23.50;61.50;;;;;;5052443;28;20025;-74
2021/08/07 12:48:59;;;;;;;2.45;0.65;;;23.70;59.60;;;;;;5052620;28;20025;-74
2021/08/07 12:51:30;;;;;;;1.98;0.80;;;23.70;59.80;;;;;;5051774;28;20052;-73
2021/08/07 12:53:57;;;;;;;1.98;0.50;;;23.70;60.20;;;;;;5052514;28;20036;-73
2021/08/07 12:56:24;;;;;;;0.90;0.45;;;23.80;59.90;;;;;;5051794;28;20067;-76